This is the latest recevied weather packets stored in our database for station/object OK1OBR-13. If no packets are shown the sender has not sent any weather packets the latest 1 day(s).
| Time | Temp. | Humidity | Pressure | Rain* | Wind** | Luminosity | Snow |
|---|---|---|---|---|---|---|---|
| 1778075521 | 17.78° C | 53% | 928.6 hPa | 0.25 mm | - | - | - |
| 1778075341 | 18.33° C | 53% | 928.4 hPa | 0.25 mm | - | - | - |
| 1778075281 | 18.33° C | 53% | 928.5 hPa | 0.25 mm | - | - | - |
| 1778075161 | 18.33° C | 53% | 928.5 hPa | 0.25 mm | - | - | - |
| 1778075042 | 18.33° C | 53% | 928.4 hPa | 0.25 mm | - | - | - |
| 1778074502 | 18.33° C | 52% | 928.6 hPa | 0.25 mm | - | - | - |
| 1778074441 | 18.33° C | 51% | 928.5 hPa | 0.25 mm | - | - | - |
| 1778074382 | 18.33° C | 52% | 928.5 hPa | 0.25 mm | - | - | - |
| 1778073961 | 18.33° C | 53% | 928.9 hPa | 0.25 mm | - | - | - |
| 1778073841 | 18.89° C | 51% | 928.7 hPa | 0.25 mm | - | - | - |
| 1778073661 | 18.89° C | 50% | 928.8 hPa | 0.25 mm | - | - | - |
| 1778073481 | 18.89° C | 50% | 928.8 hPa | 0.25 mm | - | - | - |
| 1778073241 | 19.44° C | 50% | 928.7 hPa | 0.25 mm | - | - | - |
| 1778073121 | 19.44° C | 50% | 928.7 hPa | 0.25 mm | - | - | - |
| 1778073001 | 19.44° C | 49% | 928.8 hPa | 0.25 mm | - | - | - |
| 1778072881 | 19.44° C | 51% | 928.8 hPa | 0.25 mm | - | - | - |
| 1778072761 | 20° C | 49% | 928.8 hPa | 0.25 mm | - | - | - |
| 1778072342 | 20° C | 47% | 928.8 hPa | 0.25 mm | - | - | - |
| 1778071981 | 20° C | 47% | 928.9 hPa | 0.25 mm | - | - | - |
| 1778071921 | 20° C | 46% | 929.1 hPa | 0.25 mm | - | - | - |
| 1778071861 | 20° C | 48% | 929 hPa | 0.25 mm | - | - | - |
| 1778071801 | 20° C | 47% | 928.9 hPa | 0.25 mm | - | - | - |
| 1778071441 | 19.44° C | 52% | 928.8 hPa | 0.25 mm | - | - | - |
| 1778071382 | 18.89° C | 52% | 928.9 hPa | 0.25 mm | - | - | - |
| 1778071262 | 18.89° C | 51% | 929.1 hPa | 0.25 mm | - | - | - |
* Rain since midnight (hover to see other rain measurements)
** Current wind speed in m/s (hover to see current wind gust speed)